sensor_id;sensor_type;location;lat;lon;timestamp;temperature;humidity
76293;DHT22;67256;51.154;4.164;2023-08-17T00:00:14;22.20;66.40
76293;DHT22;67256;51.154;4.164;2023-08-17T00:02:41;22.10;67.00
76293;DHT22;67256;51.154;4.164;2023-08-17T00:05:07;22.10;67.00
76293;DHT22;67256;51.154;4.164;2023-08-17T00:07:33;22.00;67.30
76293;DHT22;67256;51.154;4.164;2023-08-17T00:09:59;22.00;67.50
76293;DHT22;67256;51.154;4.164;2023-08-17T00:12:25;21.90;67.80
76293;DHT22;67256;51.154;4.164;2023-08-17T00:14:52;21.80;67.90
76293;DHT22;67256;51.154;4.164;2023-08-17T00:17:19;21.70;68.60
76293;DHT22;67256;51.154;4.164;2023-08-17T00:19:45;21.70;68.70
76293;DHT22;67256;51.154;4.164;2023-08-17T00:22:11;21.60;68.90
76293;DHT22;67256;51.154;4.164;2023-08-17T00:24:36;21.60;69.30
76293;DHT22;67256;51.154;4.164;2023-08-17T00:27:02;21.40;70.00
76293;DHT22;67256;51.154;4.164;2023-08-17T00:29:30;21.40;70.30
76293;DHT22;67256;51.154;4.164;2023-08-17T00:31:56;21.30;70.50
76293;DHT22;67256;51.154;4.164;2023-08-17T00:34:22;21.30;71.00
76293;DHT22;67256;51.154;4.164;2023-08-17T00:36:47;21.20;71.20
76293;DHT22;67256;51.154;4.164;2023-08-17T00:39:13;21.20;71.80
76293;DHT22;67256;51.154;4.164;2023-08-17T00:41:40;20.90;72.60
76293;DHT22;67256;51.154;4.164;2023-08-17T00:44:06;20.90;72.90
76293;DHT22;67256;51.154;4.164;2023-08-17T00:46:32;20.70;73.80
76293;DHT22;67256;51.154;4.164;2023-08-17T00:48:58;20.60;74.00
76293;DHT22;67256;51.154;4.164;2023-08-17T00:51:25;20.70;74.10
76293;DHT22;67256;51.154;4.164;2023-08-17T00:53:53;20.80;73.60
76293;DHT22;67256;51.154;4.164;2023-08-17T00:56:21;20.90;73.50
76293;DHT22;67256;51.154;4.164;2023-08-17T00:58:49;21.00;72.80
76293;DHT22;67256;51.154;4.164;2023-08-17T01:01:15;21.00;72.60
76293;DHT22;67256;51.154;4.164;2023-08-17T01:03:40;21.00;72.90
76293;DHT22;67256;51.154;4.164;2023-08-17T01:06:07;21.00;72.80
76293;DHT22;67256;51.154;4.164;2023-08-17T01:08:33;20.90;72.80
76293;DHT22;67256;51.154;4.164;2023-08-17T01:11:20;20.80;73.20
76293;DHT22;67256;51.154;4.164;2023-08-17T01:16:27;20.80;73.40
76293;DHT22;67256;51.154;4.164;2023-08-17T01:18:54;20.70;73.50
76293;DHT22;67256;51.154;4.164;2023-08-17T01:21:21;20.90;73.20
76293;DHT22;67256;51.154;4.164;2023-08-17T01:23:50;20.80;72.80
76293;DHT22;67256;51.154;4.164;2023-08-17T01:26:16;20.90;72.50
76293;DHT22;67256;51.154;4.164;2023-08-17T01:28:46;20.90;72.90
76293;DHT22;67256;51.154;4.164;2023-08-17T01:31:27;20.90;72.70
76293;DHT22;67256;51.154;4.164;2023-08-17T01:34:01;20.70;73.40
76293;DHT22;67256;51.154;4.164;2023-08-17T01:36:50;20.90;73.10
76293;DHT22;67256;51.154;4.164;2023-08-17T01:39:17;20.80;72.90
76293;DHT22;67256;51.154;4.164;2023-08-17T01:41:45;20.70;73.20
76293;DHT22;67256;51.154;4.164;2023-08-17T01:44:12;20.80;73.20
76293;DHT22;67256;51.154;4.164;2023-08-17T01:46:39;20.80;73.10
76293;DHT22;67256;51.154;4.164;2023-08-17T01:49:05;20.80;73.00
76293;DHT22;67256;51.154;4.164;2023-08-17T01:51:30;20.90;72.80
76293;DHT22;67256;51.154;4.164;2023-08-17T01:53:56;20.80;73.00
76293;DHT22;67256;51.154;4.164;2023-08-17T01:56:21;20.70;73.30
76293;DHT22;67256;51.154;4.164;2023-08-17T01:58:47;20.80;73.10
76293;DHT22;67256;51.154;4.164;2023-08-17T02:01:13;20.90;72.60
76293;DHT22;67256;51.154;4.164;2023-08-17T02:03:39;20.90;72.70
76293;DHT22;67256;51.154;4.164;2023-08-17T02:06:05;20.90;72.40
76293;DHT22;67256;51.154;4.164;2023-08-17T02:08:32;20.60;73.50
76293;DHT22;67256;51.154;4.164;2023-08-17T02:10:59;20.60;73.50
76293;DHT22;67256;51.154;4.164;2023-08-17T02:13:24;20.70;73.20
76293;DHT22;67256;51.154;4.164;2023-08-17T02:15:52;20.80;72.50
76293;DHT22;67256;51.154;4.164;2023-08-17T02:18:18;20.80;72.80
76293;DHT22;67256;51.154;4.164;2023-08-17T02:20:44;20.80;72.50
76293;DHT22;67256;51.154;4.164;2023-08-17T02:23:09;20.80;72.70
76293;DHT22;67256;51.154;4.164;2023-08-17T02:25:38;20.80;72.70
76293;DHT22;67256;51.154;4.164;2023-08-17T02:28:04;20.70;72.90
76293;DHT22;67256;51.154;4.164;2023-08-17T02:30:30;20.70;73.00
76293;DHT22;67256;51.154;4.164;2023-08-17T02:32:56;20.70;72.90
76293;DHT22;67256;51.154;4.164;2023-08-17T02:35:23;20.70;73.30
76293;DHT22;67256;51.154;4.164;2023-08-17T02:37:48;20.70;73.30
76293;DHT22;67256;51.154;4.164;2023-08-17T02:40:14;20.60;73.50
76293;DHT22;67256;51.154;4.164;2023-08-17T02:42:40;20.70;73.00
76293;DHT22;67256;51.154;4.164;2023-08-17T02:45:07;20.60;73.30
76293;DHT22;67256;51.154;4.164;2023-08-17T02:47:32;20.50;73.40
76293;DHT22;67256;51.154;4.164;2023-08-17T02:49:58;20.40;73.70
76293;DHT22;67256;51.154;4.164;2023-08-17T02:52:24;20.40;73.80
76293;DHT22;67256;51.154;4.164;2023-08-17T02:54:49;20.20;74.40
76293;DHT22;67256;51.154;4.164;2023-08-17T02:57:15;20.30;74.40
76293;DHT22;67256;51.154;4.164;2023-08-17T02:59:41;20.30;74.10
76293;DHT22;67256;51.154;4.164;2023-08-17T03:02:07;20.20;74.10
76293;DHT22;67256;51.154;4.164;2023-08-17T03:04:32;20.20;74.20
76293;DHT22;67256;51.154;4.164;2023-08-17T03:06:58;20.30;73.60
76293;DHT22;67256;51.154;4.164;2023-08-17T03:09:24;20.20;74.30
76293;DHT22;67256;51.154;4.164;2023-08-17T03:11:50;20.30;74.30
76293;DHT22;67256;51.154;4.164;2023-08-17T03:14:16;20.20;74.50
76293;DHT22;67256;51.154;4.164;2023-08-17T03:16:41;20.10;74.40
76293;DHT22;67256;51.154;4.164;2023-08-17T03:19:07;20.20;74.30
76293;DHT22;67256;51.154;4.164;2023-08-17T03:21:37;20.20;74.50
76293;DHT22;67256;51.154;4.164;2023-08-17T03:24:03;20.30;74.00
76293;DHT22;67256;51.154;4.164;2023-08-17T03:26:29;20.20;74.10
76293;DHT22;67256;51.154;4.164;2023-08-17T03:28:54;20.10;74.50
76293;DHT22;67256;51.154;4.164;2023-08-17T03:31:21;19.90;75.70
76293;DHT22;67256;51.154;4.164;2023-08-17T03:33:47;20.00;75.10
76293;DHT22;67256;51.154;4.164;2023-08-17T03:36:13;20.20;74.50
76293;DHT22;67256;51.154;4.164;2023-08-17T03:38:39;20.10;75.10
76293;DHT22;67256;51.154;4.164;2023-08-17T03:41:05;20.20;74.60
76293;DHT22;67256;51.154;4.164;2023-08-17T03:43:31;20.30;74.10
76293;DHT22;67256;51.154;4.164;2023-08-17T03:45:57;20.30;74.20
76293;DHT22;67256;51.154;4.164;2023-08-17T03:48:22;20.30;73.90
76293;DHT22;67256;51.154;4.164;2023-08-17T03:50:52;20.30;74.20
76293;DHT22;67256;51.154;4.164;2023-08-17T03:53:18;20.30;73.90
76293;DHT22;67256;51.154;4.164;2023-08-17T03:55:50;20.40;73.80
76293;DHT22;67256;51.154;4.164;2023-08-17T03:58:17;20.30;74.00
76293;DHT22;67256;51.154;4.164;2023-08-17T04:00:51;20.30;73.90
76293;DHT22;67256;51.154;4.164;2023-08-17T04:03:18;20.10;74.70
76293;DHT22;67256;51.154;4.164;2023-08-17T04:05:44;20.30;74.50
76293;DHT22;67256;51.154;4.164;2023-08-17T04:08:10;20.20;74.10
76293;DHT22;67256;51.154;4.164;2023-08-17T04:10:36;20.20;73.90
76293;DHT22;67256;51.154;4.164;2023-08-17T04:13:01;20.30;73.90
76293;DHT22;67256;51.154;4.164;2023-08-17T04:15:28;20.30;73.90
76293;DHT22;67256;51.154;4.164;2023-08-17T04:17:54;20.20;74.10
76293;DHT22;67256;51.154;4.164;2023-08-17T04:20:19;20.10;74.30
76293;DHT22;67256;51.154;4.164;2023-08-17T04:22:45;20.20;73.70
76293;DHT22;67256;51.154;4.164;2023-08-17T04:25:11;20.10;74.10
76293;DHT22;67256;51.154;4.164;2023-08-17T04:27:36;20.10;74.10
76293;DHT22;67256;51.154;4.164;2023-08-17T04:30:02;20.20;73.50
76293;DHT22;67256;51.154;4.164;2023-08-17T04:32:28;20.20;73.50
76293;DHT22;67256;51.154;4.164;2023-08-17T04:34:53;20.30;73.00
76293;DHT22;67256;51.154;4.164;2023-08-17T04:37:19;20.40;72.50
76293;DHT22;67256;51.154;4.164;2023-08-17T04:39:45;20.50;72.00
76293;DHT22;67256;51.154;4.164;2023-08-17T04:42:13;20.50;71.60
76293;DHT22;67256;51.154;4.164;2023-08-17T04:44:39;20.50;71.50
76293;DHT22;67256;51.154;4.164;2023-08-17T04:47:05;20.40;72.00
76293;DHT22;67256;51.154;4.164;2023-08-17T04:49:31;20.40;71.80
76293;DHT22;67256;51.154;4.164;2023-08-17T04:51:56;20.50;71.60
76293;DHT22;67256;51.154;4.164;2023-08-17T04:54:23;20.40;71.30
76293;DHT22;67256;51.154;4.164;2023-08-17T04:56:48;20.40;71.40
76293;DHT22;67256;51.154;4.164;2023-08-17T04:59:14;20.10;71.50
76293;DHT22;67256;51.154;4.164;2023-08-17T05:01:40;20.10;71.60
76293;DHT22;67256;51.154;4.164;2023-08-17T05:04:06;20.10;71.70
76293;DHT22;67256;51.154;4.164;2023-08-17T05:06:32;20.20;70.90
76293;DHT22;67256;51.154;4.164;2023-08-17T05:08:58;20.30;70.80
76293;DHT22;67256;51.154;4.164;2023-08-17T05:11:24;20.20;71.20
76293;DHT22;67256;51.154;4.164;2023-08-17T05:13:50;20.20;70.80
76293;DHT22;67256;51.154;4.164;2023-08-17T05:16:16;20.30;70.40
76293;DHT22;67256;51.154;4.164;2023-08-17T05:18:41;20.30;70.10
76293;DHT22;67256;51.154;4.164;2023-08-17T05:21:07;20.30;70.60
76293;DHT22;67256;51.154;4.164;2023-08-17T05:23:33;20.30;70.40
76293;DHT22;67256;51.154;4.164;2023-08-17T05:25:58;20.30;70.10
76293;DHT22;67256;51.154;4.164;2023-08-17T05:28:24;20.20;70.30
76293;DHT22;67256;51.154;4.164;2023-08-17T05:30:50;20.10;70.70
76293;DHT22;67256;51.154;4.164;2023-08-17T05:33:16;20.00;71.00
76293;DHT22;67256;51.154;4.164;2023-08-17T05:35:42;19.80;71.50
76293;DHT22;67256;51.154;4.164;2023-08-17T05:38:08;19.90;71.50
76293;DHT22;67256;51.154;4.164;2023-08-17T05:40:35;19.90;72.00
76293;DHT22;67256;51.154;4.164;2023-08-17T05:43:02;19.90;72.00
76293;DHT22;67256;51.154;4.164;2023-08-17T05:45:27;19.90;71.80
76293;DHT22;67256;51.154;4.164;2023-08-17T05:47:53;19.90;71.10
76293;DHT22;67256;51.154;4.164;2023-08-17T05:50:19;19.90;71.20
76293;DHT22;67256;51.154;4.164;2023-08-17T05:52:44;19.90;71.30
76293;DHT22;67256;51.154;4.164;2023-08-17T05:55:10;19.90;71.30
76293;DHT22;67256;51.154;4.164;2023-08-17T05:57:36;19.80;71.70
76293;DHT22;67256;51.154;4.164;2023-08-17T06:00:01;19.90;71.60
76293;DHT22;67256;51.154;4.164;2023-08-17T06:02:28;20.00;71.80
76293;DHT22;67256;51.154;4.164;2023-08-17T06:04:54;19.70;71.80
76293;DHT22;67256;51.154;4.164;2023-08-17T06:07:19;19.80;71.80
76293;DHT22;67256;51.154;4.164;2023-08-17T06:09:45;19.80;71.90
76293;DHT22;67256;51.154;4.164;2023-08-17T06:12:11;20.00;71.40
76293;DHT22;67256;51.154;4.164;2023-08-17T06:14:36;20.00;70.70
76293;DHT22;67256;51.154;4.164;2023-08-17T06:17:02;20.10;70.80
76293;DHT22;67256;51.154;4.164;2023-08-17T06:19:28;20.10;71.00
76293;DHT22;67256;51.154;4.164;2023-08-17T06:21:53;20.20;70.50
76293;DHT22;67256;51.154;4.164;2023-08-17T06:24:19;20.20;71.00
76293;DHT22;67256;51.154;4.164;2023-08-17T06:26:45;20.20;70.90
76293;DHT22;67256;51.154;4.164;2023-08-17T06:29:11;20.40;70.70
76293;DHT22;67256;51.154;4.164;2023-08-17T06:31:37;20.50;70.20
76293;DHT22;67256;51.154;4.164;2023-08-17T06:34:03;20.50;69.50
76293;DHT22;67256;51.154;4.164;2023-08-17T06:36:32;20.50;69.80
76293;DHT22;67256;51.154;4.164;2023-08-17T06:38:58;20.60;69.30
76293;DHT22;67256;51.154;4.164;2023-08-17T06:41:24;20.50;69.90
76293;DHT22;67256;51.154;4.164;2023-08-17T06:43:51;20.40;70.40
76293;DHT22;67256;51.154;4.164;2023-08-17T06:46:16;20.50;70.10
76293;DHT22;67256;51.154;4.164;2023-08-17T06:48:43;20.50;69.70
76293;DHT22;67256;51.154;4.164;2023-08-17T06:51:09;20.50;70.50
76293;DHT22;67256;51.154;4.164;2023-08-17T06:53:35;20.60;69.40
76293;DHT22;67256;51.154;4.164;2023-08-17T06:56:01;20.60;69.20
76293;DHT22;67256;51.154;4.164;2023-08-17T06:58:26;20.50;69.70
76293;DHT22;67256;51.154;4.164;2023-08-17T07:00:52;20.40;69.40
76293;DHT22;67256;51.154;4.164;2023-08-17T07:03:18;20.20;70.00
76293;DHT22;67256;51.154;4.164;2023-08-17T07:05:44;20.20;70.10
76293;DHT22;67256;51.154;4.164;2023-08-17T07:08:10;20.20;70.40
76293;DHT22;67256;51.154;4.164;2023-08-17T07:10:36;20.20;70.80
76293;DHT22;67256;51.154;4.164;2023-08-17T07:13:02;20.40;70.90
76293;DHT22;67256;51.154;4.164;2023-08-17T07:15:32;20.50;70.30
76293;DHT22;67256;51.154;4.164;2023-08-17T07:17:58;20.50;70.20
76293;DHT22;67256;51.154;4.164;2023-08-17T07:20:23;20.30;70.80
76293;DHT22;67256;51.154;4.164;2023-08-17T07:22:49;20.50;70.60
76293;DHT22;67256;51.154;4.164;2023-08-17T07:25:15;20.40;70.60
76293;DHT22;67256;51.154;4.164;2023-08-17T07:27:41;20.40;70.40
76293;DHT22;67256;51.154;4.164;2023-08-17T07:30:08;20.40;70.50
76293;DHT22;67256;51.154;4.164;2023-08-17T07:32:34;20.50;70.30
76293;DHT22;67256;51.154;4.164;2023-08-17T07:35:00;20.40;71.00
76293;DHT22;67256;51.154;4.164;2023-08-17T07:37:25;20.50;71.00
76293;DHT22;67256;51.154;4.164;2023-08-17T07:39:58;20.40;71.30
76293;DHT22;67256;51.154;4.164;2023-08-17T07:42:24;20.30;71.50
76293;DHT22;67256;51.154;4.164;2023-08-17T07:44:50;20.40;71.30
76293;DHT22;67256;51.154;4.164;2023-08-17T07:47:16;20.50;70.90
76293;DHT22;67256;51.154;4.164;2023-08-17T07:49:41;20.50;70.90
76293;DHT22;67256;51.154;4.164;2023-08-17T07:52:07;20.70;70.40
76293;DHT22;67256;51.154;4.164;2023-08-17T07:54:33;20.70;70.30
76293;DHT22;67256;51.154;4.164;2023-08-17T07:56:59;20.80;70.20
76293;DHT22;67256;51.154;4.164;2023-08-17T07:59:25;20.80;70.60
76293;DHT22;67256;51.154;4.164;2023-08-17T08:01:51;20.80;70.30
76293;DHT22;67256;51.154;4.164;2023-08-17T08:04:17;21.00;70.50
76293;DHT22;67256;51.154;4.164;2023-08-17T08:06:43;21.20;69.90
76293;DHT22;67256;51.154;4.164;2023-08-17T08:09:08;21.10;70.10
76293;DHT22;67256;51.154;4.164;2023-08-17T08:11:34;21.30;69.50
76293;DHT22;67256;51.154;4.164;2023-08-17T08:14:00;21.30;69.70
76293;DHT22;67256;51.154;4.164;2023-08-17T08:16:27;21.40;69.40
76293;DHT22;67256;51.154;4.164;2023-08-17T08:18:54;21.40;68.90
76293;DHT22;67256;51.154;4.164;2023-08-17T08:21:20;21.40;68.60
76293;DHT22;67256;51.154;4.164;2023-08-17T08:23:46;21.50;69.20
76293;DHT22;67256;51.154;4.164;2023-08-17T08:26:11;21.70;68.40
76293;DHT22;67256;51.154;4.164;2023-08-17T08:28:37;21.70;68.30
76293;DHT22;67256;51.154;4.164;2023-08-17T08:31:03;21.40;68.30
76293;DHT22;67256;51.154;4.164;2023-08-17T08:33:29;21.20;69.70
76293;DHT22;67256;51.154;4.164;2023-08-17T08:35:55;21.00;69.90
76293;DHT22;67256;51.154;4.164;2023-08-17T08:38:21;20.90;70.40
76293;DHT22;67256;51.154;4.164;2023-08-17T08:40:47;21.00;71.10
76293;DHT22;67256;51.154;4.164;2023-08-17T08:43:14;21.00;70.70
76293;DHT22;67256;51.154;4.164;2023-08-17T08:45:42;21.00;70.80
76293;DHT22;67256;51.154;4.164;2023-08-17T08:48:10;21.10;70.70
76293;DHT22;67256;51.154;4.164;2023-08-17T08:50:40;21.20;70.50
76293;DHT22;67256;51.154;4.164;2023-08-17T08:53:11;21.40;70.20
76293;DHT22;67256;51.154;4.164;2023-08-17T08:55:45;21.60;69.40
76293;DHT22;67256;51.154;4.164;2023-08-17T08:58:13;21.70;69.20
76293;DHT22;67256;51.154;4.164;2023-08-17T09:00:40;21.80;69.20
76293;DHT22;67256;51.154;4.164;2023-08-17T09:03:06;21.90;68.60
76293;DHT22;67256;51.154;4.164;2023-08-17T09:05:33;22.00;68.90
76293;DHT22;67256;51.154;4.164;2023-08-17T09:08:00;22.00;69.30
76293;DHT22;67256;51.154;4.164;2023-08-17T09:10:28;22.00;68.20
76293;DHT22;67256;51.154;4.164;2023-08-17T09:12:53;22.00;68.20
76293;DHT22;67256;51.154;4.164;2023-08-17T09:15:19;21.70;69.60
76293;DHT22;67256;51.154;4.164;2023-08-17T09:17:45;21.80;70.00
76293;DHT22;67256;51.154;4.164;2023-08-17T09:20:46;21.90;69.10
76293;DHT22;67256;51.154;4.164;2023-08-17T09:23:16;21.80;69.60
76293;DHT22;67256;51.154;4.164;2023-08-17T09:25:43;21.80;69.30
76293;DHT22;67256;51.154;4.164;2023-08-17T09:28:11;21.90;69.80
76293;DHT22;67256;51.154;4.164;2023-08-17T09:30:55;21.80;69.70
76293;DHT22;67256;51.154;4.164;2023-08-17T09:33:22;21.90;70.00
76293;DHT22;67256;51.154;4.164;2023-08-17T09:35:52;21.90;70.00
76293;DHT22;67256;51.154;4.164;2023-08-17T09:38:18;21.90;69.90
76293;DHT22;67256;51.154;4.164;2023-08-17T09:40:44;22.00;69.20
76293;DHT22;67256;51.154;4.164;2023-08-17T09:43:10;22.10;69.20
76293;DHT22;67256;51.154;4.164;2023-08-17T09:45:40;21.90;70.20
76293;DHT22;67256;51.154;4.164;2023-08-17T09:48:09;22.00;70.10
76293;DHT22;67256;51.154;4.164;2023-08-17T09:50:35;22.20;69.50
76293;DHT22;67256;51.154;4.164;2023-08-17T09:53:04;22.40;69.40
76293;DHT22;67256;51.154;4.164;2023-08-17T09:55:31;22.50;69.70
76293;DHT22;67256;51.154;4.164;2023-08-17T09:58:00;22.60;68.60
76293;DHT22;67256;51.154;4.164;2023-08-17T10:00:27;22.40;68.80
76293;DHT22;67256;51.154;4.164;2023-08-17T10:02:53;22.50;68.90
76293;DHT22;67256;51.154;4.164;2023-08-17T10:05:20;22.50;68.60
76293;DHT22;67256;51.154;4.164;2023-08-17T10:07:52;22.50;68.20
76293;DHT22;67256;51.154;4.164;2023-08-17T10:10:23;22.60;67.90
76293;DHT22;67256;51.154;4.164;2023-08-17T10:15:25;22.60;69.30
76293;DHT22;67256;51.154;4.164;2023-08-17T10:20:20;22.80;68.00
76293;DHT22;67256;51.154;4.164;2023-08-17T10:23:00;22.90;67.50
76293;DHT22;67256;51.154;4.164;2023-08-17T10:25:29;22.90;68.00
76293;DHT22;67256;51.154;4.164;2023-08-17T10:27:55;22.80;68.40
76293;DHT22;67256;51.154;4.164;2023-08-17T10:30:21;22.90;68.40
76293;DHT22;67256;51.154;4.164;2023-08-17T10:32:47;23.10;67.50
76293;DHT22;67256;51.154;4.164;2023-08-17T10:35:13;23.10;67.60
76293;DHT22;67256;51.154;4.164;2023-08-17T10:37:40;23.10;66.80
76293;DHT22;67256;51.154;4.164;2023-08-17T10:40:06;22.90;67.30
76293;DHT22;67256;51.154;4.164;2023-08-17T10:42:34;22.60;68.30
76293;DHT22;67256;51.154;4.164;2023-08-17T10:45:01;22.60;69.30
76293;DHT22;67256;51.154;4.164;2023-08-17T10:47:30;22.60;68.40
76293;DHT22;67256;51.154;4.164;2023-08-17T10:50:15;22.50;69.00
76293;DHT22;67256;51.154;4.164;2023-08-17T10:52:49;22.60;69.60
76293;DHT22;67256;51.154;4.164;2023-08-17T10:55:15;22.60;69.40
76293;DHT22;67256;51.154;4.164;2023-08-17T10:57:41;22.60;69.00
76293;DHT22;67256;51.154;4.164;2023-08-17T11:00:23;22.60;69.40
76293;DHT22;67256;51.154;4.164;2023-08-17T11:02:56;22.60;69.30
76293;DHT22;67256;51.154;4.164;2023-08-17T11:05:46;22.60;69.40
76293;DHT22;67256;51.154;4.164;2023-08-17T11:08:41;22.80;68.90
76293;DHT22;67256;51.154;4.164;2023-08-17T11:11:16;22.80;69.10
76293;DHT22;67256;51.154;4.164;2023-08-17T11:13:45;22.90;68.50
76293;DHT22;67256;51.154;4.164;2023-08-17T11:16:13;23.10;68.20
76293;DHT22;67256;51.154;4.164;2023-08-17T11:18:39;23.10;67.90
76293;DHT22;67256;51.154;4.164;2023-08-17T11:21:07;23.20;67.80
76293;DHT22;67256;51.154;4.164;2023-08-17T11:23:35;23.20;67.90
76293;DHT22;67256;51.154;4.164;2023-08-17T11:26:01;23.30;67.20
76293;DHT22;67256;51.154;4.164;2023-08-17T11:28:30;23.50;66.80
76293;DHT22;67256;51.154;4.164;2023-08-17T11:31:03;23.50;66.60
76293;DHT22;67256;51.154;4.164;2023-08-17T11:33:30;23.50;66.40
76293;DHT22;67256;51.154;4.164;2023-08-17T11:35:58;23.50;66.80
76293;DHT22;67256;51.154;4.164;2023-08-17T11:38:23;23.30;67.60
76293;DHT22;67256;51.154;4.164;2023-08-17T11:40:49;23.10;67.40
76293;DHT22;67256;51.154;4.164;2023-08-17T11:43:16;23.10;67.90
76293;DHT22;67256;51.154;4.164;2023-08-17T11:45:42;23.20;68.00
76293;DHT22;67256;51.154;4.164;2023-08-17T11:48:07;23.30;67.70
76293;DHT22;67256;51.154;4.164;2023-08-17T11:50:34;22.90;68.40
76293;DHT22;67256;51.154;4.164;2023-08-17T11:53:00;23.00;69.30
76293;DHT22;67256;51.154;4.164;2023-08-17T11:55:26;23.10;68.80
76293;DHT22;67256;51.154;4.164;2023-08-17T11:57:52;22.90;69.60
76293;DHT22;67256;51.154;4.164;2023-08-17T12:00:20;22.90;69.50
76293;DHT22;67256;51.154;4.164;2023-08-17T12:02:53;23.10;69.80
76293;DHT22;67256;51.154;4.164;2023-08-17T12:05:23;23.20;69.00
76293;DHT22;67256;51.154;4.164;2023-08-17T12:07:50;23.30;68.70
76293;DHT22;67256;51.154;4.164;2023-08-17T12:10:18;23.40;67.70
76293;DHT22;67256;51.154;4.164;2023-08-17T12:12:44;23.40;67.90
76293;DHT22;67256;51.154;4.164;2023-08-17T12:15:10;23.50;67.60
76293;DHT22;67256;51.154;4.164;2023-08-17T12:17:44;23.50;67.10
76293;DHT22;67256;51.154;4.164;2023-08-17T12:20:21;23.50;67.70
76293;DHT22;67256;51.154;4.164;2023-08-17T12:22:47;23.30;67.60
76293;DHT22;67256;51.154;4.164;2023-08-17T12:25:14;23.20;67.60
76293;DHT22;67256;51.154;4.164;2023-08-17T12:27:40;23.20;68.30
76293;DHT22;67256;51.154;4.164;2023-08-17T12:30:12;23.10;68.30
76293;DHT22;67256;51.154;4.164;2023-08-17T12:32:38;23.20;67.70
76293;DHT22;67256;51.154;4.164;2023-08-17T12:35:04;23.30;67.80
76293;DHT22;67256;51.154;4.164;2023-08-17T12:37:30;23.30;67.90
76293;DHT22;67256;51.154;4.164;2023-08-17T12:39:56;23.20;68.20
76293;DHT22;67256;51.154;4.164;2023-08-17T12:42:21;23.30;67.90
76293;DHT22;67256;51.154;4.164;2023-08-17T12:44:47;23.30;68.60
76293;DHT22;67256;51.154;4.164;2023-08-17T12:47:14;23.30;67.40
76293;DHT22;67256;51.154;4.164;2023-08-17T12:49:39;23.50;67.70
76293;DHT22;67256;51.154;4.164;2023-08-17T12:52:05;23.60;66.90
76293;DHT22;67256;51.154;4.164;2023-08-17T12:54:32;23.60;66.40
76293;DHT22;67256;51.154;4.164;2023-08-17T12:56:57;23.50;67.10
76293;DHT22;67256;51.154;4.164;2023-08-17T12:59:23;23.40;67.20
76293;DHT22;67256;51.154;4.164;2023-08-17T13:01:49;23.30;67.60
76293;DHT22;67256;51.154;4.164;2023-08-17T13:04:14;23.20;68.00
76293;DHT22;67256;51.154;4.164;2023-08-17T13:06:40;23.30;67.90
76293;DHT22;67256;51.154;4.164;2023-08-17T13:09:05;23.40;67.70
76293;DHT22;67256;51.154;4.164;2023-08-17T13:11:31;23.20;68.30
76293;DHT22;67256;51.154;4.164;2023-08-17T13:13:57;23.30;68.60
76293;DHT22;67256;51.154;4.164;2023-08-17T13:16:23;23.40;67.70
76293;DHT22;67256;51.154;4.164;2023-08-17T13:18:49;23.60;67.10
76293;DHT22;67256;51.154;4.164;2023-08-17T13:21:15;23.40;67.40
76293;DHT22;67256;51.154;4.164;2023-08-17T13:23:44;23.60;67.20
76293;DHT22;67256;51.154;4.164;2023-08-17T13:26:10;23.50;67.50
76293;DHT22;67256;51.154;4.164;2023-08-17T13:28:35;23.60;67.30
76293;DHT22;67256;51.154;4.164;2023-08-17T13:31:01;23.40;67.60
76293;DHT22;67256;51.154;4.164;2023-08-17T13:33:27;23.40;67.80
76293;DHT22;67256;51.154;4.164;2023-08-17T13:35:53;23.40;68.20
76293;DHT22;67256;51.154;4.164;2023-08-17T13:38:19;23.50;67.80
76293;DHT22;67256;51.154;4.164;2023-08-17T13:40:45;23.50;67.70
76293;DHT22;67256;51.154;4.164;2023-08-17T13:43:11;23.60;67.00
76293;DHT22;67256;51.154;4.164;2023-08-17T13:45:40;23.70;66.60
76293;DHT22;67256;51.154;4.164;2023-08-17T13:48:07;23.70;66.70
76293;DHT22;67256;51.154;4.164;2023-08-17T13:50:34;23.80;66.60
76293;DHT22;67256;51.154;4.164;2023-08-17T13:53:00;23.90;66.50
76293;DHT22;67256;51.154;4.164;2023-08-17T13:55:26;23.90;66.80
76293;DHT22;67256;51.154;4.164;2023-08-17T13:57:53;23.80;67.50
76293;DHT22;67256;51.154;4.164;2023-08-17T14:00:21;23.90;66.40
76293;DHT22;67256;51.154;4.164;2023-08-17T14:02:47;23.80;67.20
76293;DHT22;67256;51.154;4.164;2023-08-17T14:05:13;23.80;67.50
76293;DHT22;67256;51.154;4.164;2023-08-17T14:07:39;23.90;66.70
76293;DHT22;67256;51.154;4.164;2023-08-17T14:10:05;24.00;66.20
76293;DHT22;67256;51.154;4.164;2023-08-17T14:12:30;23.90;67.20
76293;DHT22;67256;51.154;4.164;2023-08-17T14:14:57;23.90;66.30
76293;DHT22;67256;51.154;4.164;2023-08-17T14:17:22;23.90;66.80
76293;DHT22;67256;51.154;4.164;2023-08-17T14:19:48;23.50;67.80
76293;DHT22;67256;51.154;4.164;2023-08-17T14:22:14;23.40;67.90
76293;DHT22;67256;51.154;4.164;2023-08-17T14:24:39;23.40;68.40
76293;DHT22;67256;51.154;4.164;2023-08-17T14:27:05;23.50;68.20
76293;DHT22;67256;51.154;4.164;2023-08-17T14:29:30;23.60;67.80
76293;DHT22;67256;51.154;4.164;2023-08-17T14:31:56;23.80;66.80
76293;DHT22;67256;51.154;4.164;2023-08-17T14:34:22;23.90;67.80
76293;DHT22;67256;51.154;4.164;2023-08-17T14:36:47;24.00;66.90
76293;DHT22;67256;51.154;4.164;2023-08-17T14:39:13;24.20;66.60
76293;DHT22;67256;51.154;4.164;2023-08-17T14:41:39;24.00;66.90
76293;DHT22;67256;51.154;4.164;2023-08-17T14:44:05;24.00;66.50
76293;DHT22;67256;51.154;4.164;2023-08-17T14:46:31;23.70;67.80
76293;DHT22;67256;51.154;4.164;2023-08-17T14:48:57;23.70;67.60
76293;DHT22;67256;51.154;4.164;2023-08-17T14:51:24;23.70;67.10
76293;DHT22;67256;51.154;4.164;2023-08-17T14:53:50;23.80;67.30
76293;DHT22;67256;51.154;4.164;2023-08-17T14:56:16;23.60;67.80
76293;DHT22;67256;51.154;4.164;2023-08-17T14:58:42;23.70;67.50
76293;DHT22;67256;51.154;4.164;2023-08-17T15:01:07;23.80;67.30
76293;DHT22;67256;51.154;4.164;2023-08-17T15:03:33;23.70;68.20
76293;DHT22;67256;51.154;4.164;2023-08-17T15:05:59;23.70;68.10
76293;DHT22;67256;51.154;4.164;2023-08-17T15:08:25;23.80;67.00
76293;DHT22;67256;51.154;4.164;2023-08-17T15:10:50;23.80;67.40
76293;DHT22;67256;51.154;4.164;2023-08-17T15:13:16;23.60;68.00
76293;DHT22;67256;51.154;4.164;2023-08-17T15:15:43;23.50;68.10
76293;DHT22;67256;51.154;4.164;2023-08-17T15:18:09;23.60;68.30
76293;DHT22;67256;51.154;4.164;2023-08-17T15:20:35;23.60;69.20
76293;DHT22;67256;51.154;4.164;2023-08-17T15:23:01;23.40;68.30
76293;DHT22;67256;51.154;4.164;2023-08-17T15:25:28;23.50;68.50
76293;DHT22;67256;51.154;4.164;2023-08-17T15:27:54;23.60;68.80
76293;DHT22;67256;51.154;4.164;2023-08-17T15:30:19;23.60;69.10
76293;DHT22;67256;51.154;4.164;2023-08-17T15:32:45;23.80;67.60
76293;DHT22;67256;51.154;4.164;2023-08-17T15:35:11;24.00;67.10